sensor_id;sensor_type;location;lat;lon;timestamp;pressure;altitude;pressure_sealevel;temperature;humidity
54407;BME280;40313;50.308;30.374;2022-08-19T00:01:30;99168.22;;;26.12;100.00
54407;BME280;40313;50.308;30.374;2022-08-19T00:03:57;99164.88;;;26.03;100.00
54407;BME280;40313;50.308;30.374;2022-08-19T00:06:28;99166.53;;;26.04;100.00
54407;BME280;40313;50.308;30.374;2022-08-19T00:08:57;99186.66;;;26.00;100.00
54407;BME280;40313;50.308;30.374;2022-08-19T00:11:31;99174.66;;;25.90;100.00
54407;BME280;40313;50.308;30.374;2022-08-19T00:14:00;99186.63;;;25.94;100.00
54407;BME280;40313;50.308;30.374;2022-08-19T00:16:27;99193.59;;;25.95;100.00
54407;BME280;40313;50.308;30.374;2022-08-19T00:18:56;99181.63;;;25.84;100.00
54407;BME280;40313;50.308;30.374;2022-08-19T00:21:24;99185.31;;;25.83;100.00
54407;BME280;40313;50.308;30.374;2022-08-19T00:23:57;99158.09;;;25.66;100.00
54407;BME280;40313;50.308;30.374;2022-08-19T00:26:25;99179.91;;;25.69;100.00
54407;BME280;40313;50.308;30.374;2022-08-19T00:28:52;99185.25;;;25.69;100.00
54407;BME280;40313;50.308;30.374;2022-08-19T00:31:22;99190.13;;;25.66;100.00
54407;BME280;40313;50.308;30.374;2022-08-19T00:33:50;99169.50;;;25.53;100.00
54407;BME280;40313;50.308;30.374;2022-08-19T00:36:17;99182.72;;;25.61;100.00
54407;BME280;40313;50.308;30.374;2022-08-19T00:38:44;99177.31;;;25.55;100.00
54407;BME280;40313;50.308;30.374;2022-08-19T00:41:14;99183.66;;;25.47;100.00
54407;BME280;40313;50.308;30.374;2022-08-19T00:43:42;99172.03;;;25.33;100.00
54407;BME280;40313;50.308;30.374;2022-08-19T00:46:09;99179.75;;;25.28;100.00
54407;BME280;40313;50.308;30.374;2022-08-19T00:48:39;99183.03;;;25.23;100.00
54407;BME280;40313;50.308;30.374;2022-08-19T00:51:09;99189.81;;;25.26;100.00
54407;BME280;40313;50.308;30.374;2022-08-19T00:53:40;99196.88;;;25.33;100.00
54407;BME280;40313;50.308;30.374;2022-08-19T00:56:07;99205.03;;;25.25;100.00
54407;BME280;40313;50.308;30.374;2022-08-19T00:58:36;99211.56;;;25.23;100.00
54407;BME280;40313;50.308;30.374;2022-08-19T01:01:05;99208.44;;;25.19;100.00
54407;BME280;40313;50.308;30.374;2022-08-19T01:03:33;99192.59;;;25.11;100.00
54407;BME280;40313;50.308;30.374;2022-08-19T01:06:00;99188.38;;;25.01;100.00
54407;BME280;40313;50.308;30.374;2022-08-19T01:08:28;99193.09;;;24.99;100.00
54407;BME280;40313;50.308;30.374;2022-08-19T01:10:56;99196.13;;;24.96;100.00
54407;BME280;40313;50.308;30.374;2022-08-19T01:13:26;99198.44;;;24.99;100.00
54407;BME280;40313;50.308;30.374;2022-08-19T01:15:57;99211.28;;;25.11;100.00
54407;BME280;40313;50.308;30.374;2022-08-19T01:18:27;99181.84;;;24.82;100.00
54407;BME280;40313;50.308;30.374;2022-08-19T01:20:56;99204.47;;;25.08;100.00
54407;BME280;40313;50.308;30.374;2022-08-19T01:23:26;99196.47;;;25.08;100.00
54407;BME280;40313;50.308;30.374;2022-08-19T01:26:08;99204.97;;;25.18;100.00
54407;BME280;40313;50.308;30.374;2022-08-19T01:28:36;99196.16;;;25.25;100.00
54407;BME280;40313;50.308;30.374;2022-08-19T01:31:04;99199.69;;;25.25;100.00
54407;BME280;40313;50.308;30.374;2022-08-19T01:33:31;99196.44;;;25.30;100.00
54407;BME280;40313;50.308;30.374;2022-08-19T01:36:05;99198.53;;;25.34;100.00
54407;BME280;40313;50.308;30.374;2022-08-19T01:38:35;99192.41;;;25.41;100.00
54407;BME280;40313;50.308;30.374;2022-08-19T01:41:05;99172.25;;;25.31;100.00
54407;BME280;40313;50.308;30.374;2022-08-19T01:43:33;99187.72;;;25.43;100.00
54407;BME280;40313;50.308;30.374;2022-08-19T01:46:00;99173.16;;;25.45;100.00
54407;BME280;40313;50.308;30.374;2022-08-19T01:48:37;99166.41;;;25.49;100.00
54407;BME280;40313;50.308;30.374;2022-08-19T01:51:07;99180.78;;;25.48;100.00
54407;BME280;40313;50.308;30.374;2022-08-19T01:53:37;99177.47;;;25.46;100.00
54407;BME280;40313;50.308;30.374;2022-08-19T01:56:06;99176.41;;;25.41;100.00
54407;BME280;40313;50.308;30.374;2022-08-19T01:58:38;99171.66;;;25.36;100.00
54407;BME280;40313;50.308;30.374;2022-08-19T02:01:07;99179.25;;;25.32;100.00
54407;BME280;40313;50.308;30.374;2022-08-19T02:03:33;99187.59;;;25.29;100.00
54407;BME280;40313;50.308;30.374;2022-08-19T02:06:04;99167.13;;;25.15;100.00
54407;BME280;40313;50.308;30.374;2022-08-19T02:08:37;99177.78;;;25.08;100.00
54407;BME280;40313;50.308;30.374;2022-08-19T02:11:06;99178.97;;;25.06;100.00
54407;BME280;40313;50.308;30.374;2022-08-19T02:13:36;99180.00;;;25.05;100.00
54407;BME280;40313;50.308;30.374;2022-08-19T02:16:03;99171.88;;;24.91;100.00
54407;BME280;40313;50.308;30.374;2022-08-19T02:18:30;99185.44;;;24.96;100.00
54407;BME280;40313;50.308;30.374;2022-08-19T02:20:59;99181.34;;;24.94;100.00
54407;BME280;40313;50.308;30.374;2022-08-19T02:23:26;99176.56;;;24.89;100.00
54407;BME280;40313;50.308;30.374;2022-08-19T02:25:55;99161.78;;;24.87;100.00
54407;BME280;40313;50.308;30.374;2022-08-19T02:28:22;99179.69;;;24.93;100.00
54407;BME280;40313;50.308;30.374;2022-08-19T02:30:48;99173.16;;;24.95;100.00
54407;BME280;40313;50.308;30.374;2022-08-19T02:33:16;99178.09;;;24.98;100.00
54407;BME280;40313;50.308;30.374;2022-08-19T02:35:46;99187.81;;;25.06;100.00
54407;BME280;40313;50.308;30.374;2022-08-19T02:38:13;99188.00;;;25.05;100.00
54407;BME280;40313;50.308;30.374;2022-08-19T02:40:56;99190.63;;;24.98;100.00
54407;BME280;40313;50.308;30.374;2022-08-19T02:43:24;99192.44;;;24.97;100.00
54407;BME280;40313;50.308;30.374;2022-08-19T02:45:51;99196.50;;;24.93;100.00
54407;BME280;40313;50.308;30.374;2022-08-19T02:48:20;99186.53;;;24.80;100.00
54407;BME280;40313;50.308;30.374;2022-08-19T02:50:48;99199.69;;;24.82;100.00
54407;BME280;40313;50.308;30.374;2022-08-19T02:53:18;99203.78;;;24.78;100.00
54407;BME280;40313;50.308;30.374;2022-08-19T02:55:46;99195.13;;;24.76;100.00
54407;BME280;40313;50.308;30.374;2022-08-19T02:58:15;99184.38;;;24.69;100.00
54407;BME280;40313;50.308;30.374;2022-08-19T03:00:43;99197.59;;;24.77;100.00
54407;BME280;40313;50.308;30.374;2022-08-19T03:03:11;99192.44;;;24.76;100.00
54407;BME280;40313;50.308;30.374;2022-08-19T03:05:44;99199.75;;;24.89;100.00
54407;BME280;40313;50.308;30.374;2022-08-19T03:08:13;99194.09;;;24.77;100.00
54407;BME280;40313;50.308;30.374;2022-08-19T03:10:41;99200.22;;;24.92;100.00
54407;BME280;40313;50.308;30.374;2022-08-19T03:13:11;99203.06;;;24.91;100.00
54407;BME280;40313;50.308;30.374;2022-08-19T03:15:44;99191.63;;;24.97;100.00
54407;BME280;40313;50.308;30.374;2022-08-19T03:18:13;99203.50;;;24.94;100.00
54407;BME280;40313;50.308;30.374;2022-08-19T03:20:41;99215.13;;;25.08;100.00
54407;BME280;40313;50.308;30.374;2022-08-19T03:23:08;99214.28;;;25.08;100.00
54407;BME280;40313;50.308;30.374;2022-08-19T03:25:37;99212.97;;;25.18;100.00
54407;BME280;40313;50.308;30.374;2022-08-19T03:28:05;99202.09;;;25.20;100.00
54407;BME280;40313;50.308;30.374;2022-08-19T03:30:32;99214.66;;;25.26;100.00
54407;BME280;40313;50.308;30.374;2022-08-19T03:33:01;99209.63;;;25.31;100.00
54407;BME280;40313;50.308;30.374;2022-08-19T03:35:30;99201.59;;;25.31;100.00
54407;BME280;40313;50.308;30.374;2022-08-19T03:37:58;99173.59;;;25.27;100.00
54407;BME280;40313;50.308;30.374;2022-08-19T03:40:27;99208.94;;;25.51;100.00
54407;BME280;40313;50.308;30.374;2022-08-19T03:42:55;99192.06;;;25.44;100.00
54407;BME280;40313;50.308;30.374;2022-08-19T03:45:22;99205.25;;;25.52;100.00
54407;BME280;40313;50.308;30.374;2022-08-19T03:47:49;99213.91;;;25.54;100.00
54407;BME280;40313;50.308;30.374;2022-08-19T03:50:17;99219.91;;;25.63;100.00
54407;BME280;40313;50.308;30.374;2022-08-19T03:52:48;99213.78;;;25.69;100.00
54407;BME280;40313;50.308;30.374;2022-08-19T03:55:15;99222.38;;;25.93;100.00
54407;BME280;40313;50.308;30.374;2022-08-19T03:57:47;99211.88;;;25.91;100.00
54407;BME280;40313;50.308;30.374;2022-08-19T04:00:15;99212.75;;;25.98;100.00
54407;BME280;40313;50.308;30.374;2022-08-19T04:02:42;99210.47;;;25.95;100.00
54407;BME280;40313;50.308;30.374;2022-08-19T04:05:09;99232.56;;;26.11;100.00
54407;BME280;40313;50.308;30.374;2022-08-19T04:07:39;99235.88;;;26.13;100.00
54407;BME280;40313;50.308;30.374;2022-08-19T04:10:09;99211.09;;;25.97;100.00
54407;BME280;40313;50.308;30.374;2022-08-19T04:12:38;99206.22;;;26.08;100.00
54407;BME280;40313;50.308;30.374;2022-08-19T04:15:06;99227.25;;;26.17;100.00
54407;BME280;40313;50.308;30.374;2022-08-19T04:17:33;99214.53;;;26.19;100.00
54407;BME280;40313;50.308;30.374;2022-08-19T04:20:00;99218.63;;;26.22;100.00
54407;BME280;40313;50.308;30.374;2022-08-19T04:22:28;99238.22;;;26.29;100.00
54407;BME280;40313;50.308;30.374;2022-08-19T04:24:58;99241.16;;;26.41;100.00
54407;BME280;40313;50.308;30.374;2022-08-19T04:27:27;99233.38;;;26.53;100.00
54407;BME280;40313;50.308;30.374;2022-08-19T04:29:54;99221.66;;;26.54;100.00
54407;BME280;40313;50.308;30.374;2022-08-19T04:32:21;99241.94;;;26.77;100.00
54407;BME280;40313;50.308;30.374;2022-08-19T04:34:48;99240.09;;;26.90;100.00
54407;BME280;40313;50.308;30.374;2022-08-19T04:37:15;99235.59;;;26.91;100.00
54407;BME280;40313;50.308;30.374;2022-08-19T04:39:42;99244.69;;;27.84;100.00
54407;BME280;40313;50.308;30.374;2022-08-19T04:42:30;99243.59;;;30.47;91.17
54407;BME280;40313;50.308;30.374;2022-08-19T04:45:08;99223.66;;;31.63;82.51
54407;BME280;40313;50.308;30.374;2022-08-19T04:47:36;99242.19;;;33.22;74.64
54407;BME280;40313;50.308;30.374;2022-08-19T04:50:08;99250.06;;;33.57;68.65
54407;BME280;40313;50.308;30.374;2022-08-19T04:52:37;99257.94;;;33.76;67.35
54407;BME280;40313;50.308;30.374;2022-08-19T04:55:08;99253.84;;;32.65;71.51
54407;BME280;40313;50.308;30.374;2022-08-19T04:57:37;99260.09;;;32.13;70.68
54407;BME280;40313;50.308;30.374;2022-08-19T05:00:07;99260.91;;;32.13;71.33
54407;BME280;40313;50.308;30.374;2022-08-19T05:02:36;99269.16;;;31.29;72.91
54407;BME280;40313;50.308;30.374;2022-08-19T05:05:07;99255.16;;;30.47;76.20
54407;BME280;40313;50.308;30.374;2022-08-19T05:07:34;99271.22;;;29.98;80.50
54407;BME280;40313;50.308;30.374;2022-08-19T05:10:01;99259.19;;;29.51;82.49
54407;BME280;40313;50.308;30.374;2022-08-19T05:12:31;99268.84;;;29.33;84.40
54407;BME280;40313;50.308;30.374;2022-08-19T05:15:00;99269.19;;;29.11;85.93
54407;BME280;40313;50.308;30.374;2022-08-19T05:17:27;99279.44;;;28.89;86.96
54407;BME280;40313;50.308;30.374;2022-08-19T05:19:54;99265.28;;;29.07;87.77
54407;BME280;40313;50.308;30.374;2022-08-19T05:22:42;99280.59;;;29.07;86.11
54407;BME280;40313;50.308;30.374;2022-08-19T05:25:13;99274.47;;;28.93;86.66
54407;BME280;40313;50.308;30.374;2022-08-19T05:27:45;99268.19;;;28.74;87.74
54407;BME280;40313;50.308;30.374;2022-08-19T05:30:14;99284.75;;;28.64;88.01
54407;BME280;40313;50.308;30.374;2022-08-19T05:32:41;99267.38;;;28.67;89.17
54407;BME280;40313;50.308;30.374;2022-08-19T05:35:08;99265.59;;;28.40;88.89
54407;BME280;40313;50.308;30.374;2022-08-19T05:37:36;99263.97;;;28.33;89.45
54407;BME280;40313;50.308;30.374;2022-08-19T05:40:09;99260.66;;;28.44;89.72
54407;BME280;40313;50.308;30.374;2022-08-19T05:42:38;99275.31;;;28.41;89.55
54407;BME280;40313;50.308;30.374;2022-08-19T05:45:11;99270.78;;;28.35;89.76
54407;BME280;40313;50.308;30.374;2022-08-19T05:47:43;99269.06;;;28.48;89.80
54407;BME280;40313;50.308;30.374;2022-08-19T05:50:10;99271.38;;;28.44;89.18
54407;BME280;40313;50.308;30.374;2022-08-19T05:52:37;99266.38;;;28.48;89.46
54407;BME280;40313;50.308;30.374;2022-08-19T05:55:06;99245.75;;;30.38;81.57
54407;BME280;40313;50.308;30.374;2022-08-19T05:57:36;99236.94;;;33.66;66.47
54407;BME280;40313;50.308;30.374;2022-08-19T06:00:04;99238.84;;;35.69;59.29
54407;BME280;40313;50.308;30.374;2022-08-19T06:02:34;99269.28;;;37.75;52.40
54407;BME280;40313;50.308;30.374;2022-08-19T06:05:05;99260.34;;;38.40;47.65
54407;BME280;40313;50.308;30.374;2022-08-19T06:07:36;99274.53;;;36.36;52.57
54407;BME280;40313;50.308;30.374;2022-08-19T06:10:10;99270.28;;;38.04;50.63
54407;BME280;40313;50.308;30.374;2022-08-19T06:12:37;99264.69;;;39.89;45.81
54407;BME280;40313;50.308;30.374;2022-08-19T06:15:07;99263.31;;;40.59;42.49
54407;BME280;40313;50.308;30.374;2022-08-19T06:17:37;99247.66;;;41.17;40.94
54407;BME280;40313;50.308;30.374;2022-08-19T06:20:14;99264.06;;;41.50;39.71
54407;BME280;40313;50.308;30.374;2022-08-19T06:22:44;99257.22;;;41.66;39.02
54407;BME280;40313;50.308;30.374;2022-08-19T06:25:13;99266.38;;;42.03;38.37
54407;BME280;40313;50.308;30.374;2022-08-19T06:27:45;99258.41;;;42.43;37.40
54407;BME280;40313;50.308;30.374;2022-08-19T06:30:12;99265.81;;;42.93;36.48
54407;BME280;40313;50.308;30.374;2022-08-19T06:32:46;99246.16;;;42.77;35.99
54407;BME280;40313;50.308;30.374;2022-08-19T06:38:04;99253.16;;;42.05;37.34
54407;BME280;40313;50.308;30.374;2022-08-19T06:40:31;99263.22;;;39.72;40.47
54407;BME280;40313;50.308;30.374;2022-08-19T06:43:00;99265.72;;;37.84;43.07
54407;BME280;40313;50.308;30.374;2022-08-19T06:45:36;99227.25;;;36.31;45.09
54407;BME280;40313;50.308;30.374;2022-08-19T06:48:06;99264.28;;;35.57;48.18
54407;BME280;40313;50.308;30.374;2022-08-19T06:50:35;99265.38;;;34.96;50.13
54407;BME280;40313;50.308;30.374;2022-08-19T06:53:03;99263.63;;;34.36;51.72
54407;BME280;40313;50.308;30.374;2022-08-19T06:55:31;99273.78;;;33.72;54.14
54407;BME280;40313;50.308;30.374;2022-08-19T06:57:57;99288.09;;;33.05;55.59
54407;BME280;40313;50.308;30.374;2022-08-19T07:00:28;99287.03;;;32.48;57.05
54407;BME280;40313;50.308;30.374;2022-08-19T07:02:55;99277.44;;;32.05;59.46
54407;BME280;40313;50.308;30.374;2022-08-19T07:05:22;99263.75;;;31.83;60.97
54407;BME280;40313;50.308;30.374;2022-08-19T07:07:50;99258.69;;;31.63;61.91
54407;BME280;40313;50.308;30.374;2022-08-19T07:10:17;99266.16;;;31.37;62.51
54407;BME280;40313;50.308;30.374;2022-08-19T07:12:53;99264.50;;;31.36;64.63
54407;BME280;40313;50.308;30.374;2022-08-19T07:15:20;99258.41;;;30.98;64.98
54407;BME280;40313;50.308;30.374;2022-08-19T07:17:48;99262.25;;;31.21;66.25
54407;BME280;40313;50.308;30.374;2022-08-19T07:20:16;99273.38;;;31.25;66.52
54407;BME280;40313;50.308;30.374;2022-08-19T07:22:43;99254.75;;;31.11;67.02
54407;BME280;40313;50.308;30.374;2022-08-19T07:25:12;99265.06;;;31.26;66.74
54407;BME280;40313;50.308;30.374;2022-08-19T07:27:41;99270.56;;;31.19;66.96
54407;BME280;40313;50.308;30.374;2022-08-19T07:30:13;99273.34;;;31.01;67.26
54407;BME280;40313;50.308;30.374;2022-08-19T07:32:41;99265.84;;;31.03;67.04
54407;BME280;40313;50.308;30.374;2022-08-19T07:35:10;99246.72;;;30.62;67.05
54407;BME280;40313;50.308;30.374;2022-08-19T07:37:41;99269.25;;;30.80;67.84
54407;BME280;40313;50.308;30.374;2022-08-19T07:40:10;99245.41;;;30.65;67.56
54407;BME280;40313;50.308;30.374;2022-08-19T07:42:40;99251.19;;;30.80;68.69
54407;BME280;40313;50.308;30.374;2022-08-19T07:45:08;99240.81;;;30.84;68.02
54407;BME280;40313;50.308;30.374;2022-08-19T07:47:49;99235.22;;;30.97;67.87
54407;BME280;40313;50.308;30.374;2022-08-19T07:50:17;99240.59;;;30.97;67.80
54407;BME280;40313;50.308;30.374;2022-08-19T07:52:54;99245.00;;;30.80;67.70
54407;BME280;40313;50.308;30.374;2022-08-19T07:55:24;99264.25;;;31.26;68.52
54407;BME280;40313;50.308;30.374;2022-08-19T07:57:53;99267.44;;;31.34;67.38
54407;BME280;40313;50.308;30.374;2022-08-19T08:00:25;99268.50;;;31.45;67.88
54407;BME280;40313;50.308;30.374;2022-08-19T08:02:53;99252.63;;;31.25;67.15
54407;BME280;40313;50.308;30.374;2022-08-19T08:05:20;99276.44;;;31.28;67.75
54407;BME280;40313;50.308;30.374;2022-08-19T08:08:04;99294.94;;;31.25;68.01
54407;BME280;40313;50.308;30.374;2022-08-19T08:10:48;99288.91;;;31.11;67.62
54407;BME280;40313;50.308;30.374;2022-08-19T08:13:16;99284.16;;;31.25;68.13
54407;BME280;40313;50.308;30.374;2022-08-19T08:15:43;99279.84;;;31.35;67.51
54407;BME280;40313;50.308;30.374;2022-08-19T08:18:11;99303.03;;;31.36;67.77
54407;BME280;40313;50.308;30.374;2022-08-19T08:20:38;99263.31;;;31.32;67.95
54407;BME280;40313;50.308;30.374;2022-08-19T08:23:05;99280.09;;;31.46;67.93
54407;BME280;40313;50.308;30.374;2022-08-19T08:25:57;99285.97;;;31.43;67.72
54407;BME280;40313;50.308;30.374;2022-08-19T08:28:27;99283.81;;;31.21;68.25
54407;BME280;40313;50.308;30.374;2022-08-19T08:30:57;99298.84;;;31.41;68.21
54407;BME280;40313;50.308;30.374;2022-08-19T08:33:26;99278.19;;;31.23;68.94
54407;BME280;40313;50.308;30.374;2022-08-19T08:35:53;99283.03;;;31.32;68.46
54407;BME280;40313;50.308;30.374;2022-08-19T08:38:20;99288.28;;;31.51;68.16
54407;BME280;40313;50.308;30.374;2022-08-19T08:40:52;99298.75;;;31.47;68.63
54407;BME280;40313;50.308;30.374;2022-08-19T08:43:26;99267.09;;;31.54;67.49
54407;BME280;40313;50.308;30.374;2022-08-19T08:45:59;99279.31;;;31.69;68.69
54407;BME280;40313;50.308;30.374;2022-08-19T08:48:36;99293.16;;;31.61;67.51
54407;BME280;40313;50.308;30.374;2022-08-19T08:51:07;99279.94;;;31.71;67.74
54407;BME280;40313;50.308;30.374;2022-08-19T08:53:36;99296.59;;;31.80;68.08
54407;BME280;40313;50.308;30.374;2022-08-19T08:56:08;99303.50;;;31.87;67.31
54407;BME280;40313;50.308;30.374;2022-08-19T08:58:44;99298.06;;;32.35;66.15
54407;BME280;40313;50.308;30.374;2022-08-19T09:01:13;99293.13;;;32.08;66.48
54407;BME280;40313;50.308;30.374;2022-08-19T09:03:42;99303.13;;;32.08;66.14
54407;BME280;40313;50.308;30.374;2022-08-19T09:06:18;99296.34;;;31.93;65.86
54407;BME280;40313;50.308;30.374;2022-08-19T09:08:56;99288.00;;;31.95;65.49
54407;BME280;40313;50.308;30.374;2022-08-19T09:11:37;99291.88;;;31.87;67.12
54407;BME280;40313;50.308;30.374;2022-08-19T09:14:15;99304.66;;;31.92;66.71
54407;BME280;40313;50.308;30.374;2022-08-19T09:16:49;99306.31;;;32.04;66.79
54407;BME280;40313;50.308;30.374;2022-08-19T09:19:17;99297.50;;;31.97;67.17
54407;BME280;40313;50.308;30.374;2022-08-19T09:21:44;99289.41;;;32.09;66.35
54407;BME280;40313;50.308;30.374;2022-08-19T09:24:14;99267.13;;;32.02;67.99
54407;BME280;40313;50.308;30.374;2022-08-19T09:26:42;99303.94;;;32.32;67.20
54407;BME280;40313;50.308;30.374;2022-08-19T09:29:10;99294.22;;;32.19;66.92
54407;BME280;40313;50.308;30.374;2022-08-19T09:31:38;99304.75;;;32.32;67.06
54407;BME280;40313;50.308;30.374;2022-08-19T09:34:05;99306.88;;;32.30;67.42
54407;BME280;40313;50.308;30.374;2022-08-19T09:37:36;99295.47;;;32.40;67.30
54407;BME280;40313;50.308;30.374;2022-08-19T09:40:11;99314.03;;;32.36;67.10
54407;BME280;40313;50.308;30.374;2022-08-19T09:42:44;99309.13;;;32.21;67.49
54407;BME280;40313;50.308;30.374;2022-08-19T09:45:13;99308.41;;;32.26;67.59
54407;BME280;40313;50.308;30.374;2022-08-19T09:47:40;99298.91;;;32.12;67.66
54407;BME280;40313;50.308;30.374;2022-08-19T09:50:10;99297.28;;;31.99;68.35
54407;BME280;40313;50.308;30.374;2022-08-19T09:52:38;99311.94;;;32.03;68.91
54407;BME280;40313;50.308;30.374;2022-08-19T09:55:09;99300.34;;;32.14;68.56
54407;BME280;40313;50.308;30.374;2022-08-19T09:57:37;99324.47;;;32.45;67.98
54407;BME280;40313;50.308;30.374;2022-08-19T10:00:05;99324.56;;;32.50;68.09
54407;BME280;40313;50.308;30.374;2022-08-19T10:02:35;99332.81;;;32.43;67.11
54407;BME280;40313;50.308;30.374;2022-08-19T10:05:04;99299.66;;;32.60;67.25
54407;BME280;40313;50.308;30.374;2022-08-19T10:07:48;99334.66;;;32.54;67.38
54407;BME280;40313;50.308;30.374;2022-08-19T10:10:15;99334.19;;;32.58;67.43
54407;BME280;40313;50.308;30.374;2022-08-19T10:12:42;99334.75;;;32.71;66.96
54407;BME280;40313;50.308;30.374;2022-08-19T10:15:11;99334.19;;;32.58;67.80
54407;BME280;40313;50.308;30.374;2022-08-19T10:17:39;99327.00;;;32.63;68.32
54407;BME280;40313;50.308;30.374;2022-08-19T10:20:07;99325.00;;;32.99;67.54
54407;BME280;40313;50.308;30.374;2022-08-19T10:22:37;99322.84;;;32.84;67.27
54407;BME280;40313;50.308;30.374;2022-08-19T10:25:10;99318.81;;;32.99;67.66
54407;BME280;40313;50.308;30.374;2022-08-19T10:27:37;99333.16;;;33.16;66.04
54407;BME280;40313;50.308;30.374;2022-08-19T10:30:05;99323.72;;;33.02;66.62
54407;BME280;40313;50.308;30.374;2022-08-19T10:32:32;99332.97;;;32.77;66.78
54407;BME280;40313;50.308;30.374;2022-08-19T10:35:03;99336.66;;;33.00;67.43
54407;BME280;40313;50.308;30.374;2022-08-19T10:37:34;99319.97;;;33.03;67.46
54407;BME280;40313;50.308;30.374;2022-08-19T10:40:05;99327.56;;;33.06;66.36
54407;BME280;40313;50.308;30.374;2022-08-19T10:42:33;99337.41;;;33.41;66.27
54407;BME280;40313;50.308;30.374;2022-08-19T10:45:00;99337.75;;;33.62;65.46
54407;BME280;40313;50.308;30.374;2022-08-19T10:47:29;99345.47;;;33.53;65.64
54407;BME280;40313;50.308;30.374;2022-08-19T10:49:59;99350.53;;;33.49;65.72
54407;BME280;40313;50.308;30.374;2022-08-19T10:52:47;99364.38;;;33.36;65.91
54407;BME280;40313;50.308;30.374;2022-08-19T10:55:16;99352.19;;;33.50;65.44
54407;BME280;40313;50.308;30.374;2022-08-19T10:58:00;99371.34;;;34.17;65.57
54407;BME280;40313;50.308;30.374;2022-08-19T11:00:29;99340.19;;;34.31;63.25
54407;BME280;40313;50.308;30.374;2022-08-19T11:02:56;99368.91;;;34.15;64.24
54407;BME280;40313;50.308;30.374;2022-08-19T11:05:28;99371.88;;;33.97;63.65
54407;BME280;40313;50.308;30.374;2022-08-19T11:07:57;99358.78;;;33.88;63.65
54407;BME280;40313;50.308;30.374;2022-08-19T11:10:24;99370.06;;;33.85;64.17
54407;BME280;40313;50.308;30.374;2022-08-19T11:12:50;99364.66;;;33.68;64.78
54407;BME280;40313;50.308;30.374;2022-08-19T11:15:20;99341.63;;;33.66;64.60
54407;BME280;40313;50.308;30.374;2022-08-19T11:17:47;99364.09;;;34.00;64.67
54407;BME280;40313;50.308;30.374;2022-08-19T11:20:20;99337.78;;;33.96;64.13
54407;BME280;40313;50.308;30.374;2022-08-19T11:22:51;99362.78;;;33.86;63.73
54407;BME280;40313;50.308;30.374;2022-08-19T11:25:20;99369.91;;;33.92;64.17
54407;BME280;40313;50.308;30.374;2022-08-19T11:27:47;99352.34;;;34.29;63.62
54407;BME280;40313;50.308;30.374;2022-08-19T11:30:16;99351.53;;;34.50;63.00
54407;BME280;40313;50.308;30.374;2022-08-19T11:32:43;99362.44;;;34.55;62.15
54407;BME280;40313;50.308;30.374;2022-08-19T11:35:10;99346.56;;;34.42;61.92
54407;BME280;40313;50.308;30.374;2022-08-19T11:37:37;99348.44;;;34.64;61.94
54407;BME280;40313;50.308;30.374;2022-08-19T11:40:06;99367.28;;;34.98;61.67
54407;BME280;40313;50.308;30.374;2022-08-19T11:42:37;99354.25;;;35.22;60.35
54407;BME280;40313;50.308;30.374;2022-08-19T11:45:23;99349.03;;;35.15;60.01
54407;BME280;40313;50.308;30.374;2022-08-19T11:47:49;99363.56;;;35.04;60.42
54407;BME280;40313;50.308;30.374;2022-08-19T11:50:17;99360.75;;;34.71;59.81
54407;BME280;40313;50.308;30.374;2022-08-19T11:52:44;99368.53;;;34.68;60.16
54407;BME280;40313;50.308;30.374;2022-08-19T11:55:12;99359.50;;;34.57;60.91
54407;BME280;40313;50.308;30.374;2022-08-19T11:57:41;99376.56;;;34.79;60.53
54407;BME280;40313;50.308;30.374;2022-08-19T12:00:10;99347.38;;;34.65;60.95
54407;BME280;40313;50.308;30.374;2022-08-19T12:02:37;99370.75;;;34.71;61.16
54407;BME280;40313;50.308;30.374;2022-08-19T12:05:05;99375.41;;;34.53;61.12
54407;BME280;40313;50.308;30.374;2022-08-19T12:07:32;99364.84;;;33.96;60.41
54407;BME280;40313;50.308;30.374;2022-08-19T12:10:02;99348.66;;;33.67;60.56
54407;BME280;40313;50.308;30.374;2022-08-19T12:12:29;99373.66;;;33.57;61.31
54407;BME280;40313;50.308;30.374;2022-08-19T12:14:58;99370.38;;;33.72;61.46
54407;BME280;40313;50.308;30.374;2022-08-19T12:17:26;99353.00;;;33.68;60.77
54407;BME280;40313;50.308;30.374;2022-08-19T12:19:54;99357.78;;;33.78;60.19
54407;BME280;40313;50.308;30.374;2022-08-19T12:22:21;99346.38;;;33.92;59.82
54407;BME280;40313;50.308;30.374;2022-08-19T12:24:48;99366.88;;;34.05;58.79
54407;BME280;40313;50.308;30.374;2022-08-19T12:27:18;99357.34;;;34.20;59.66
54407;BME280;40313;50.308;30.374;2022-08-19T12:29:45;99356.44;;;34.14;59.95
54407;BME280;40313;50.308;30.374;2022-08-19T12:32:13;99342.19;;;34.02;60.51
54407;BME280;40313;50.308;30.374;2022-08-19T12:34:41;99349.91;;;33.93;60.64
54407;BME280;40313;50.308;30.374;2022-08-19T12:37:08;99361.22;;;33.73;60.76
54407;BME280;40313;50.308;30.374;2022-08-19T12:39:40;99364.88;;;33.67;60.81
54407;BME280;40313;50.308;30.374;2022-08-19T12:42:08;99372.81;;;33.56;60.06
54407;BME280;40313;50.308;30.374;2022-08-19T12:44:35;99364.63;;;33.51;60.21
54407;BME280;40313;50.308;30.374;2022-08-19T12:47:02;99368.91;;;33.64;60.35
54407;BME280;40313;50.308;30.374;2022-08-19T12:49:31;99354.06;;;33.67;60.17
54407;BME280;40313;50.308;30.374;2022-08-19T12:51:59;99351.03;;;33.46;60.17
54407;BME280;40313;50.308;30.374;2022-08-19T12:54:25;99363.53;;;33.35;60.61
54407;BME280;40313;50.308;30.374;2022-08-19T12:56:52;99358.63;;;33.49;59.93
54407;BME280;40313;50.308;30.374;2022-08-19T12:59:19;99375.25;;;33.41;60.39
54407;BME280;40313;50.308;30.374;2022-08-19T13:01:46;99352.97;;;33.34;60.17